sensor_id;sensor_type;location;lat;lon;timestamp;temperature;humidity
48579;DHT22;34357;51.948;6.132;2022-09-03T00:04:38;17.40;52.30
48579;DHT22;34357;51.948;6.132;2022-09-03T00:07:18;17.40;52.40
48579;DHT22;34357;51.948;6.132;2022-09-03T00:09:52;17.30;52.20
48579;DHT22;34357;51.948;6.132;2022-09-03T00:12:27;17.30;52.60
48579;DHT22;34357;51.948;6.132;2022-09-03T00:15:06;17.30;52.30
48579;DHT22;34357;51.948;6.132;2022-09-03T00:20:25;17.30;52.50
48579;DHT22;34357;51.948;6.132;2022-09-03T00:22:54;17.30;52.20
48579;DHT22;34357;51.948;6.132;2022-09-03T00:25:56;17.20;52.20
48579;DHT22;34357;51.948;6.132;2022-09-03T00:28:27;17.20;52.40
48579;DHT22;34357;51.948;6.132;2022-09-03T00:31:10;17.20;52.80
48579;DHT22;34357;51.948;6.132;2022-09-03T00:33:40;17.20;53.10
48579;DHT22;34357;51.948;6.132;2022-09-03T00:36:17;17.20;52.60
48579;DHT22;34357;51.948;6.132;2022-09-03T00:38:44;17.10;53.00
48579;DHT22;34357;51.948;6.132;2022-09-03T00:41:19;17.10;53.20
48579;DHT22;34357;51.948;6.132;2022-09-03T00:43:56;17.10;53.10
48579;DHT22;34357;51.948;6.132;2022-09-03T00:52:31;16.90;53.40
48579;DHT22;34357;51.948;6.132;2022-09-03T00:58:15;16.90;53.60
48579;DHT22;34357;51.948;6.132;2022-09-03T01:00:38;16.90;53.60
48579;DHT22;34357;51.948;6.132;2022-09-03T01:03:18;16.90;53.70
48579;DHT22;34357;51.948;6.132;2022-09-03T01:06:00;16.80;53.70
48579;DHT22;34357;51.948;6.132;2022-09-03T01:09:15;16.80;53.60
48579;DHT22;34357;51.948;6.132;2022-09-03T01:15:11;16.70;54.90
48579;DHT22;34357;51.948;6.132;2022-09-03T01:21:17;16.60;54.70
48579;DHT22;34357;51.948;6.132;2022-09-03T01:45:39;16.30;55.50
48579;DHT22;34357;51.948;6.132;2022-09-03T01:48:35;16.40;55.30
48579;DHT22;34357;51.948;6.132;2022-09-03T02:02:25;16.20;55.70
48579;DHT22;34357;51.948;6.132;2022-09-03T02:07:49;16.20;55.80
48579;DHT22;34357;51.948;6.132;2022-09-03T02:13:10;16.20;56.10
48579;DHT22;34357;51.948;6.132;2022-09-03T02:15:41;16.10;56.50
48579;DHT22;34357;51.948;6.132;2022-09-03T02:18:14;16.00;56.30
48579;DHT22;34357;51.948;6.132;2022-09-03T02:20:41;16.00;56.40
48579;DHT22;34357;51.948;6.132;2022-09-03T02:23:07;16.00;56.50
48579;DHT22;34357;51.948;6.132;2022-09-03T02:25:39;16.00;56.50
48579;DHT22;34357;51.948;6.132;2022-09-03T02:28:06;16.00;56.90
48579;DHT22;34357;51.948;6.132;2022-09-03T02:30:33;15.90;56.90
48579;DHT22;34357;51.948;6.132;2022-09-03T02:32:59;15.90;56.70
48579;DHT22;34357;51.948;6.132;2022-09-03T02:35:25;15.80;57.20
48579;DHT22;34357;51.948;6.132;2022-09-03T02:37:51;15.80;57.10
48579;DHT22;34357;51.948;6.132;2022-09-03T02:40:17;15.80;57.10
48579;DHT22;34357;51.948;6.132;2022-09-03T02:42:43;15.70;57.30
48579;DHT22;34357;51.948;6.132;2022-09-03T02:45:23;15.70;57.30
48579;DHT22;34357;51.948;6.132;2022-09-03T02:47:56;15.70;57.80
48579;DHT22;34357;51.948;6.132;2022-09-03T02:50:23;15.70;57.80
48579;DHT22;34357;51.948;6.132;2022-09-03T02:52:50;15.60;57.80
48579;DHT22;34357;51.948;6.132;2022-09-03T02:55:16;15.60;57.40
48579;DHT22;34357;51.948;6.132;2022-09-03T02:57:42;15.60;57.60
48579;DHT22;34357;51.948;6.132;2022-09-03T03:00:08;15.50;58.00
48579;DHT22;34357;51.948;6.132;2022-09-03T03:02:34;15.50;58.20
48579;DHT22;34357;51.948;6.132;2022-09-03T03:05:00;15.50;58.10
48579;DHT22;34357;51.948;6.132;2022-09-03T03:07:28;15.50;58.00
48579;DHT22;34357;51.948;6.132;2022-09-03T03:09:56;15.40;58.20
48579;DHT22;34357;51.948;6.132;2022-09-03T03:12:21;15.40;58.30
48579;DHT22;34357;51.948;6.132;2022-09-03T03:14:47;15.40;58.30
48579;DHT22;34357;51.948;6.132;2022-09-03T03:17:13;15.40;58.60
48579;DHT22;34357;51.948;6.132;2022-09-03T03:19:39;15.30;58.90
48579;DHT22;34357;51.948;6.132;2022-09-03T03:22:05;15.30;58.70
48579;DHT22;34357;51.948;6.132;2022-09-03T03:24:30;15.30;58.60
48579;DHT22;34357;51.948;6.132;2022-09-03T03:26:56;15.30;58.70
48579;DHT22;34357;51.948;6.132;2022-09-03T03:29:23;15.20;58.80
48579;DHT22;34357;51.948;6.132;2022-09-03T03:31:50;15.20;59.20
48579;DHT22;34357;51.948;6.132;2022-09-03T03:34:16;15.20;59.30
48579;DHT22;34357;51.948;6.132;2022-09-03T03:36:42;15.10;59.40
48579;DHT22;34357;51.948;6.132;2022-09-03T03:39:07;15.10;59.20
48579;DHT22;34357;51.948;6.132;2022-09-03T03:41:34;15.10;59.20
48579;DHT22;34357;51.948;6.132;2022-09-03T03:44:03;15.10;59.30
48579;DHT22;34357;51.948;6.132;2022-09-03T03:46:40;15.00;59.10
48579;DHT22;34357;51.948;6.132;2022-09-03T03:49:06;15.00;59.50
48579;DHT22;34357;51.948;6.132;2022-09-03T03:51:33;15.00;59.70
48579;DHT22;34357;51.948;6.132;2022-09-03T03:54:00;14.90;59.50
48579;DHT22;34357;51.948;6.132;2022-09-03T03:56:26;14.90;59.70
48579;DHT22;34357;51.948;6.132;2022-09-03T03:58:53;14.90;59.90
48579;DHT22;34357;51.948;6.132;2022-09-03T04:01:20;14.90;60.10
48579;DHT22;34357;51.948;6.132;2022-09-03T04:03:47;14.80;60.00
48579;DHT22;34357;51.948;6.132;2022-09-03T04:06:15;14.80;60.10
48579;DHT22;34357;51.948;6.132;2022-09-03T04:08:43;14.80;60.10
48579;DHT22;34357;51.948;6.132;2022-09-03T04:11:11;14.80;60.00
48579;DHT22;34357;51.948;6.132;2022-09-03T04:13:39;14.70;60.40
48579;DHT22;34357;51.948;6.132;2022-09-03T04:16:12;14.70;60.30
48579;DHT22;34357;51.948;6.132;2022-09-03T04:18:39;14.70;60.50
48579;DHT22;34357;51.948;6.132;2022-09-03T04:21:07;14.70;60.50
48579;DHT22;34357;51.948;6.132;2022-09-03T04:23:38;14.70;60.50
48579;DHT22;34357;51.948;6.132;2022-09-03T04:26:05;14.60;60.90
48579;DHT22;34357;51.948;6.132;2022-09-03T04:28:31;14.60;60.90
48579;DHT22;34357;51.948;6.132;2022-09-03T04:31:06;14.50;61.10
48579;DHT22;34357;51.948;6.132;2022-09-03T04:33:33;14.60;60.80
48579;DHT22;34357;51.948;6.132;2022-09-03T04:36:14;14.50;60.90
48579;DHT22;34357;51.948;6.132;2022-09-03T04:38:43;14.60;60.80
48579;DHT22;34357;51.948;6.132;2022-09-03T04:41:11;14.50;61.10
48579;DHT22;34357;51.948;6.132;2022-09-03T04:43:37;14.50;61.30
48579;DHT22;34357;51.948;6.132;2022-09-03T04:46:05;14.50;61.40
48579;DHT22;34357;51.948;6.132;2022-09-03T04:48:32;14.40;61.10
48579;DHT22;34357;51.948;6.132;2022-09-03T04:51:10;14.40;61.60
48579;DHT22;34357;51.948;6.132;2022-09-03T04:53:37;14.40;61.60
48579;DHT22;34357;51.948;6.132;2022-09-03T04:56:15;14.40;61.50
48579;DHT22;34357;51.948;6.132;2022-09-03T04:58:42;14.40;61.40
48579;DHT22;34357;51.948;6.132;2022-09-03T05:01:16;14.40;61.50
48579;DHT22;34357;51.948;6.132;2022-09-03T05:03:42;14.40;61.50
48579;DHT22;34357;51.948;6.132;2022-09-03T05:06:08;14.40;61.50
48579;DHT22;34357;51.948;6.132;2022-09-03T05:08:34;14.40;61.60
48579;DHT22;34357;51.948;6.132;2022-09-03T05:11:02;14.40;61.40
48579;DHT22;34357;51.948;6.132;2022-09-03T05:13:28;14.40;61.60
48579;DHT22;34357;51.948;6.132;2022-09-03T05:16:04;14.40;61.60
48579;DHT22;34357;51.948;6.132;2022-09-03T05:18:31;14.30;61.60
48579;DHT22;34357;51.948;6.132;2022-09-03T05:21:04;14.30;61.70
48579;DHT22;34357;51.948;6.132;2022-09-03T05:23:34;14.30;61.90
48579;DHT22;34357;51.948;6.132;2022-09-03T05:26:02;14.20;61.90
48579;DHT22;34357;51.948;6.132;2022-09-03T05:28:29;14.30;62.20
48579;DHT22;34357;51.948;6.132;2022-09-03T05:30:59;14.30;62.20
48579;DHT22;34357;51.948;6.132;2022-09-03T05:33:25;14.30;62.00
48579;DHT22;34357;51.948;6.132;2022-09-03T05:35:53;14.30;62.40
48579;DHT22;34357;51.948;6.132;2022-09-03T05:38:20;14.30;62.30
48579;DHT22;34357;51.948;6.132;2022-09-03T05:40:45;14.40;62.20
48579;DHT22;34357;51.948;6.132;2022-09-03T05:43:11;14.40;62.20
48579;DHT22;34357;51.948;6.132;2022-09-03T05:45:36;14.50;61.70
48579;DHT22;34357;51.948;6.132;2022-09-03T05:48:02;14.60;62.00
48579;DHT22;34357;51.948;6.132;2022-09-03T05:50:28;14.60;61.60
48579;DHT22;34357;51.948;6.132;2022-09-03T05:52:53;14.60;61.80
48579;DHT22;34357;51.948;6.132;2022-09-03T05:55:19;14.70;61.60
48579;DHT22;34357;51.948;6.132;2022-09-03T05:57:50;14.90;61.20
48579;DHT22;34357;51.948;6.132;2022-09-03T06:00:16;14.90;61.20
48579;DHT22;34357;51.948;6.132;2022-09-03T06:02:48;15.00;61.20
48579;DHT22;34357;51.948;6.132;2022-09-03T06:05:14;15.20;61.00
48579;DHT22;34357;51.948;6.132;2022-09-03T06:07:41;15.50;60.10
48579;DHT22;34357;51.948;6.132;2022-09-03T06:10:07;15.90;58.60
48579;DHT22;34357;51.948;6.132;2022-09-03T06:12:33;16.50;57.00
48579;DHT22;34357;51.948;6.132;2022-09-03T06:15:00;16.90;55.80
48579;DHT22;34357;51.948;6.132;2022-09-03T06:17:26;17.30;54.30
48579;DHT22;34357;51.948;6.132;2022-09-03T06:19:51;17.60;53.40
48579;DHT22;34357;51.948;6.132;2022-09-03T06:22:17;17.80;52.60
48579;DHT22;34357;51.948;6.132;2022-09-03T06:24:43;18.00;52.00
48579;DHT22;34357;51.948;6.132;2022-09-03T06:27:08;18.10;51.60
48579;DHT22;34357;51.948;6.132;2022-09-03T06:29:37;18.30;51.40
48579;DHT22;34357;51.948;6.132;2022-09-03T06:32:15;18.50;51.00
48579;DHT22;34357;51.948;6.132;2022-09-03T06:34:41;18.90;50.20
48579;DHT22;34357;51.948;6.132;2022-09-03T06:37:07;19.20;49.50
48579;DHT22;34357;51.948;6.132;2022-09-03T06:39:32;19.20;49.50
48579;DHT22;34357;51.948;6.132;2022-09-03T06:41:58;19.20;49.10
48579;DHT22;34357;51.948;6.132;2022-09-03T06:44:32;19.40;48.90
48579;DHT22;34357;51.948;6.132;2022-09-03T06:46:58;19.50;48.30
48579;DHT22;34357;51.948;6.132;2022-09-03T06:49:25;19.70;48.10
48579;DHT22;34357;51.948;6.132;2022-09-03T06:51:51;19.40;48.60
48579;DHT22;34357;51.948;6.132;2022-09-03T06:54:17;19.60;48.20
48579;DHT22;34357;51.948;6.132;2022-09-03T06:56:43;19.60;48.60
48579;DHT22;34357;51.948;6.132;2022-09-03T06:59:13;19.70;47.90
48579;DHT22;34357;51.948;6.132;2022-09-03T07:01:40;19.80;48.40
48579;DHT22;34357;51.948;6.132;2022-09-03T07:04:07;20.00;47.40
48579;DHT22;34357;51.948;6.132;2022-09-03T07:06:36;20.20;47.60
48579;DHT22;34357;51.948;6.132;2022-09-03T07:09:06;20.20;47.00
48579;DHT22;34357;51.948;6.132;2022-09-03T07:11:32;20.10;47.80
48579;DHT22;34357;51.948;6.132;2022-09-03T07:14:01;20.20;47.70
48579;DHT22;34357;51.948;6.132;2022-09-03T07:16:29;20.50;47.40
48579;DHT22;34357;51.948;6.132;2022-09-03T07:18:55;20.40;47.40
48579;DHT22;34357;51.948;6.132;2022-09-03T07:21:26;20.40;47.50
48579;DHT22;34357;51.948;6.132;2022-09-03T07:23:53;20.30;46.70
48579;DHT22;34357;51.948;6.132;2022-09-03T07:26:30;20.30;47.80
48579;DHT22;34357;51.948;6.132;2022-09-03T07:28:57;20.50;46.80
48579;DHT22;34357;51.948;6.132;2022-09-03T07:31:27;20.50;46.80
48579;DHT22;34357;51.948;6.132;2022-09-03T07:33:57;20.70;46.90
48579;DHT22;34357;51.948;6.132;2022-09-03T07:36:26;20.80;46.30
48579;DHT22;34357;51.948;6.132;2022-09-03T07:38:56;20.80;46.60
48579;DHT22;34357;51.948;6.132;2022-09-03T07:41:24;21.10;45.70
48579;DHT22;34357;51.948;6.132;2022-09-03T07:43:51;21.00;46.00
48579;DHT22;34357;51.948;6.132;2022-09-03T07:46:20;21.20;45.00
48579;DHT22;34357;51.948;6.132;2022-09-03T07:48:50;21.10;45.60
48579;DHT22;34357;51.948;6.132;2022-09-03T07:51:17;21.40;45.20
48579;DHT22;34357;51.948;6.132;2022-09-03T07:53:47;21.50;45.10
48579;DHT22;34357;51.948;6.132;2022-09-03T07:56:13;21.60;45.50
48579;DHT22;34357;51.948;6.132;2022-09-03T07:58:40;21.50;44.70
48579;DHT22;34357;51.948;6.132;2022-09-03T08:01:12;21.70;44.70
48579;DHT22;34357;51.948;6.132;2022-09-03T08:03:38;21.90;45.40
48579;DHT22;34357;51.948;6.132;2022-09-03T08:06:07;22.10;45.40
48579;DHT22;34357;51.948;6.132;2022-09-03T08:08:34;22.20;43.80
48579;DHT22;34357;51.948;6.132;2022-09-03T08:13:47;22.30;43.30
48579;DHT22;34357;51.948;6.132;2022-09-03T08:16:17;22.30;43.20
48579;DHT22;34357;51.948;6.132;2022-09-03T08:18:43;22.40;43.00
48579;DHT22;34357;51.948;6.132;2022-09-03T08:21:12;22.60;43.60
48579;DHT22;34357;51.948;6.132;2022-09-03T08:23:41;23.00;42.40
48579;DHT22;34357;51.948;6.132;2022-09-03T08:26:08;23.10;42.50
48579;DHT22;34357;51.948;6.132;2022-09-03T08:28:35;23.20;41.50
48579;DHT22;34357;51.948;6.132;2022-09-03T08:31:15;23.20;42.60
48579;DHT22;34357;51.948;6.132;2022-09-03T08:33:47;23.40;42.40
48579;DHT22;34357;51.948;6.132;2022-09-03T08:36:18;23.50;42.20
48579;DHT22;34357;51.948;6.132;2022-09-03T08:38:45;23.50;41.60
48579;DHT22;34357;51.948;6.132;2022-09-03T08:44:33;23.70;41.60
48579;DHT22;34357;51.948;6.132;2022-09-03T08:47:10;23.70;40.20
48579;DHT22;34357;51.948;6.132;2022-09-03T08:49:59;23.70;40.80
48579;DHT22;34357;51.948;6.132;2022-09-03T08:58:06;23.80;41.70
48579;DHT22;34357;51.948;6.132;2022-09-03T09:00:54;24.10;41.10
48579;DHT22;34357;51.948;6.132;2022-09-03T09:12:28;24.50;40.30
48579;DHT22;34357;51.948;6.132;2022-09-03T09:25:25;24.90;38.00
48579;DHT22;34357;51.948;6.132;2022-09-03T09:28:00;25.00;38.40
48579;DHT22;34357;51.948;6.132;2022-09-03T09:30:28;25.30;38.60
48579;DHT22;34357;51.948;6.132;2022-09-03T09:32:55;25.10;38.30
48579;DHT22;34357;51.948;6.132;2022-09-03T09:35:21;24.90;38.10
48579;DHT22;34357;51.948;6.132;2022-09-03T09:40:32;25.20;37.50
48579;DHT22;34357;51.948;6.132;2022-09-03T09:43:14;25.20;38.00
48579;DHT22;34357;51.948;6.132;2022-09-03T09:45:43;25.40;37.90
48579;DHT22;34357;51.948;6.132;2022-09-03T09:48:20;25.20;38.60
48579;DHT22;34357;51.948;6.132;2022-09-03T09:50:47;25.20;37.70
48579;DHT22;34357;51.948;6.132;2022-09-03T09:53:16;25.00;39.00
48579;DHT22;34357;51.948;6.132;2022-09-03T09:55:54;25.40;38.50
48579;DHT22;34357;51.948;6.132;2022-09-03T09:58:22;25.80;38.00
48579;DHT22;34357;51.948;6.132;2022-09-03T10:01:20;25.70;38.90
48579;DHT22;34357;51.948;6.132;2022-09-03T10:03:58;25.80;38.20
48579;DHT22;34357;51.948;6.132;2022-09-03T10:06:26;25.80;36.40
48579;DHT22;34357;51.948;6.132;2022-09-03T10:09:14;25.50;36.40
48579;DHT22;34357;51.948;6.132;2022-09-03T10:11:50;25.50;37.30
48579;DHT22;34357;51.948;6.132;2022-09-03T10:14:36;25.30;37.70
48579;DHT22;34357;51.948;6.132;2022-09-03T10:17:23;25.80;37.60
48579;DHT22;34357;51.948;6.132;2022-09-03T10:20:17;26.10;37.40
48579;DHT22;34357;51.948;6.132;2022-09-03T10:23:00;26.00;37.00
48579;DHT22;34357;51.948;6.132;2022-09-03T10:25:53;25.90;36.90
48579;DHT22;34357;51.948;6.132;2022-09-03T10:28:25;26.00;36.40
48579;DHT22;34357;51.948;6.132;2022-09-03T10:31:02;26.10;36.00
48579;DHT22;34357;51.948;6.132;2022-09-03T10:33:41;26.00;35.80
48579;DHT22;34357;51.948;6.132;2022-09-03T10:36:22;26.10;36.20
48579;DHT22;34357;51.948;6.132;2022-09-03T10:39:02;26.00;36.30
48579;DHT22;34357;51.948;6.132;2022-09-03T10:41:49;26.10;37.00
48579;DHT22;34357;51.948;6.132;2022-09-03T10:44:28;26.20;36.60
48579;DHT22;34357;51.948;6.132;2022-09-03T10:55:51;26.20;36.50
48579;DHT22;34357;51.948;6.132;2022-09-03T11:01:02;26.40;35.60
48579;DHT22;34357;51.948;6.132;2022-09-03T11:06:42;26.40;36.00
48579;DHT22;34357;51.948;6.132;2022-09-03T11:11:59;26.40;35.20
48579;DHT22;34357;51.948;6.132;2022-09-03T11:14:40;26.40;36.10
48579;DHT22;34357;51.948;6.132;2022-09-03T11:17:16;26.20;36.00
48579;DHT22;34357;51.948;6.132;2022-09-03T11:20:04;26.10;36.70
48579;DHT22;34357;51.948;6.132;2022-09-03T11:22:35;26.00;36.70
48579;DHT22;34357;51.948;6.132;2022-09-03T11:25:04;26.20;36.60
48579;DHT22;34357;51.948;6.132;2022-09-03T11:30:13;26.30;36.50
48579;DHT22;34357;51.948;6.132;2022-09-03T11:32:44;26.50;36.00
48579;DHT22;34357;51.948;6.132;2022-09-03T11:35:43;26.60;35.90
48579;DHT22;34357;51.948;6.132;2022-09-03T11:43:30;26.60;36.30
48579;DHT22;34357;51.948;6.132;2022-09-03T11:48:44;26.70;36.00
48579;DHT22;34357;51.948;6.132;2022-09-03T11:51:31;26.80;36.60
48579;DHT22;34357;51.948;6.132;2022-09-03T11:54:05;26.80;35.80
48579;DHT22;34357;51.948;6.132;2022-09-03T11:56:33;26.80;35.70
48579;DHT22;34357;51.948;6.132;2022-09-03T12:01:27;27.00;36.10
48579;DHT22;34357;51.948;6.132;2022-09-03T12:04:01;27.00;36.60
48579;DHT22;34357;51.948;6.132;2022-09-03T12:09:38;26.70;36.20
48579;DHT22;34357;51.948;6.132;2022-09-03T12:17:52;26.90;35.30
48579;DHT22;34357;51.948;6.132;2022-09-03T12:20:39;26.90;36.00
48579;DHT22;34357;51.948;6.132;2022-09-03T12:23:06;27.00;36.50
48579;DHT22;34357;51.948;6.132;2022-09-03T12:25:32;27.10;35.60
48579;DHT22;34357;51.948;6.132;2022-09-03T12:28:00;26.90;35.70
48579;DHT22;34357;51.948;6.132;2022-09-03T12:30:30;27.00;36.70
48579;DHT22;34357;51.948;6.132;2022-09-03T12:33:06;27.00;35.90
48579;DHT22;34357;51.948;6.132;2022-09-03T12:35:32;26.90;37.30
48579;DHT22;34357;51.948;6.132;2022-09-03T12:37:58;27.10;35.80
48579;DHT22;34357;51.948;6.132;2022-09-03T12:40:27;27.20;36.80
48579;DHT22;34357;51.948;6.132;2022-09-03T12:42:53;27.40;36.30
48579;DHT22;34357;51.948;6.132;2022-09-03T12:45:25;27.20;36.10
48579;DHT22;34357;51.948;6.132;2022-09-03T12:47:51;27.00;37.50
48579;DHT22;34357;51.948;6.132;2022-09-03T12:50:20;27.00;36.60
48579;DHT22;34357;51.948;6.132;2022-09-03T12:52:56;27.00;36.90
48579;DHT22;34357;51.948;6.132;2022-09-03T12:55:35;26.80;37.00
48579;DHT22;34357;51.948;6.132;2022-09-03T13:00:51;26.80;37.50
48579;DHT22;34357;51.948;6.132;2022-09-03T13:03:53;26.90;37.80
48579;DHT22;34357;51.948;6.132;2022-09-03T13:06:26;26.90;37.00
48579;DHT22;34357;51.948;6.132;2022-09-03T13:08:58;26.80;37.30
48579;DHT22;34357;51.948;6.132;2022-09-03T13:11:26;26.90;37.50
48579;DHT22;34357;51.948;6.132;2022-09-03T13:13:59;27.20;37.30
48579;DHT22;34357;51.948;6.132;2022-09-03T13:16:42;27.20;37.20
48579;DHT22;34357;51.948;6.132;2022-09-03T13:24:39;27.20;37.80
48579;DHT22;34357;51.948;6.132;2022-09-03T13:27:37;27.30;37.60
48579;DHT22;34357;51.948;6.132;2022-09-03T13:30:11;27.40;36.30
48579;DHT22;34357;51.948;6.132;2022-09-03T13:32:59;27.40;36.20
48579;DHT22;34357;51.948;6.132;2022-09-03T13:35:39;27.30;36.20
48579;DHT22;34357;51.948;6.132;2022-09-03T13:38:30;27.20;36.30
48579;DHT22;34357;51.948;6.132;2022-09-03T13:43:53;27.20;36.60
48579;DHT22;34357;51.948;6.132;2022-09-03T13:46:30;27.40;36.60
48579;DHT22;34357;51.948;6.132;2022-09-03T13:49:12;27.40;36.40
48579;DHT22;34357;51.948;6.132;2022-09-03T13:52:10;27.50;35.80
48579;DHT22;34357;51.948;6.132;2022-09-03T13:54:42;27.60;35.30
48579;DHT22;34357;51.948;6.132;2022-09-03T13:57:44;27.70;35.80
48579;DHT22;34357;51.948;6.132;2022-09-03T14:00:13;27.70;35.60
48579;DHT22;34357;51.948;6.132;2022-09-03T14:02:51;27.50;36.50
48579;DHT22;34357;51.948;6.132;2022-09-03T14:13:31;27.60;35.60
48579;DHT22;34357;51.948;6.132;2022-09-03T14:19:00;27.60;34.50
48579;DHT22;34357;51.948;6.132;2022-09-03T14:21:52;27.40;35.50
48579;DHT22;34357;51.948;6.132;2022-09-03T14:27:03;27.30;35.40
48579;DHT22;34357;51.948;6.132;2022-09-03T14:29:35;27.40;36.10
48579;DHT22;34357;51.948;6.132;2022-09-03T14:38:01;27.70;36.10
48579;DHT22;34357;51.948;6.132;2022-09-03T14:40:46;27.50;36.40
48579;DHT22;34357;51.948;6.132;2022-09-03T14:54:02;27.40;36.40
48579;DHT22;34357;51.948;6.132;2022-09-03T14:59:19;27.60;37.40
48579;DHT22;34357;51.948;6.132;2022-09-03T15:07:40;27.40;36.30
48579;DHT22;34357;51.948;6.132;2022-09-03T15:10:15;27.40;39.10
48579;DHT22;34357;51.948;6.132;2022-09-03T15:12:58;27.60;37.10
48579;DHT22;34357;51.948;6.132;2022-09-03T15:15:31;27.30;35.10
48579;DHT22;34357;51.948;6.132;2022-09-03T15:18:09;26.90;35.50
48579;DHT22;34357;51.948;6.132;2022-09-03T15:20:57;26.90;37.40
48579;DHT22;34357;51.948;6.132;2022-09-03T15:26:32;26.70;36.80
48579;DHT22;34357;51.948;6.132;2022-09-03T15:31:59;27.00;36.10
48579;DHT22;34357;51.948;6.132;2022-09-03T15:37:29;26.90;36.80
48579;DHT22;34357;51.948;6.132;2022-09-03T15:40:28;26.90;37.10
48579;DHT22;34357;51.948;6.132;2022-09-03T15:43:26;26.80;36.60
48579;DHT22;34357;51.948;6.132;2022-09-03T15:51:25;26.80;37.90
48579;DHT22;34357;51.948;6.132;2022-09-03T15:53:58;26.80;36.10
48579;DHT22;34357;51.948;6.132;2022-09-03T15:59:40;26.80;37.70
48579;DHT22;34357;51.948;6.132;2022-09-03T16:02:12;26.80;38.30
48579;DHT22;34357;51.948;6.132;2022-09-03T16:07:48;26.70;38.20
48579;DHT22;34357;51.948;6.132;2022-09-03T16:10:21;26.70;39.60
48579;DHT22;34357;51.948;6.132;2022-09-03T16:13:06;26.70;39.30
48579;DHT22;34357;51.948;6.132;2022-09-03T16:15:40;26.70;39.10
48579;DHT22;34357;51.948;6.132;2022-09-03T16:20:53;26.70;40.50
48579;DHT22;34357;51.948;6.132;2022-09-03T16:26:33;26.60;40.30
48579;DHT22;34357;51.948;6.132;2022-09-03T16:29:07;26.60;38.90
48579;DHT22;34357;51.948;6.132;2022-09-03T16:43:05;26.40;41.60
48579;DHT22;34357;51.948;6.132;2022-09-03T16:48:46;26.20;41.40
48579;DHT22;34357;51.948;6.132;2022-09-03T16:51:53;26.20;41.30
48579;DHT22;34357;51.948;6.132;2022-09-03T16:57:01;26.20;41.50
48579;DHT22;34357;51.948;6.132;2022-09-03T17:00:12;26.20;42.50
48579;DHT22;34357;51.948;6.132;2022-09-03T17:03:10;26.00;41.70
48579;DHT22;34357;51.948;6.132;2022-09-03T17:06:11;25.90;41.30
48579;DHT22;34357;51.948;6.132;2022-09-03T17:09:23;25.80;42.10
48579;DHT22;34357;51.948;6.132;2022-09-03T17:11:50;25.70;42.20
48579;DHT22;34357;51.948;6.132;2022-09-03T17:24:52;25.50;44.60
48579;DHT22;34357;51.948;6.132;2022-09-03T17:27:49;25.40;44.00
48579;DHT22;34357;51.948;6.132;2022-09-03T17:36:26;25.10;44.30
48579;DHT22;34357;51.948;6.132;2022-09-03T17:39:15;25.00;44.30
48579;DHT22;34357;51.948;6.132;2022-09-03T17:42:03;25.00;45.30
48579;DHT22;34357;51.948;6.132;2022-09-03T17:50:24;24.90;46.10
48579;DHT22;34357;51.948;6.132;2022-09-03T17:52:57;24.80;46.40
48579;DHT22;34357;51.948;6.132;2022-09-03T17:55:37;24.60;46.90
48579;DHT22;34357;51.948;6.132;2022-09-03T17:58:13;24.60;46.60
48579;DHT22;34357;51.948;6.132;2022-09-03T18:03:49;24.40;47.60
48579;DHT22;34357;51.948;6.132;2022-09-03T18:06:42;24.30;48.10
48579;DHT22;34357;51.948;6.132;2022-09-03T18:12:24;24.20;48.10
48579;DHT22;34357;51.948;6.132;2022-09-03T18:14:46;24.10;48.30
48579;DHT22;34357;51.948;6.132;2022-09-03T18:17:32;24.00;48.50
48579;DHT22;34357;51.948;6.132;2022-09-03T18:20:06;23.90;48.70
48579;DHT22;34357;51.948;6.132;2022-09-03T18:25:59;23.80;48.90
48579;DHT22;34357;51.948;6.132;2022-09-03T18:31:43;23.60;49.50
48579;DHT22;34357;51.948;6.132;2022-09-03T18:34:33;23.50;50.50
48579;DHT22;34357;51.948;6.132;2022-09-03T18:37:21;23.40;51.00
48579;DHT22;34357;51.948;6.132;2022-09-03T18:40:08;23.30;51.40
48579;DHT22;34357;51.948;6.132;2022-09-03T18:43:04;23.20;51.70
48579;DHT22;34357;51.948;6.132;2022-09-03T18:46:24;23.20;52.00
48579;DHT22;34357;51.948;6.132;2022-09-03T18:49:33;23.00;51.70
48579;DHT22;34357;51.948;6.132;2022-09-03T18:52:43;22.90;53.10
48579;DHT22;34357;51.948;6.132;2022-09-03T18:58:29;22.70;53.60
48579;DHT22;34357;51.948;6.132;2022-09-03T19:01:35;22.70;54.10
48579;DHT22;34357;51.948;6.132;2022-09-03T19:08:34;22.50;56.10
48579;DHT22;34357;51.948;6.132;2022-09-03T19:11:18;22.40;55.60
48579;DHT22;34357;51.948;6.132;2022-09-03T19:14:16;22.40;56.10
48579;DHT22;34357;51.948;6.132;2022-09-03T19:17:19;22.30;55.90
48579;DHT22;34357;51.948;6.132;2022-09-03T19:20:17;22.20;56.20
48579;DHT22;34357;51.948;6.132;2022-09-03T19:23:03;22.10;56.70
48579;DHT22;34357;51.948;6.132;2022-09-03T19:25:48;22.00;58.70
48579;DHT22;34357;51.948;6.132;2022-09-03T19:28:39;21.90;58.10
48579;DHT22;34357;51.948;6.132;2022-09-03T19:31:42;21.90;58.40
48579;DHT22;34357;51.948;6.132;2022-09-03T19:40:44;21.70;59.50
48579;DHT22;34357;51.948;6.132;2022-09-03T19:46:41;21.50;60.20
48579;DHT22;34357;51.948;6.132;2022-09-03T19:52:47;21.30;61.00
48579;DHT22;34357;51.948;6.132;2022-09-03T19:55:36;21.30;61.60
48579;DHT22;34357;51.948;6.132;2022-09-03T19:58:23;21.20;61.90
48579;DHT22;34357;51.948;6.132;2022-09-03T20:01:11;21.20;61.80
48579;DHT22;34357;51.948;6.132;2022-09-03T20:03:59;21.10;62.20
48579;DHT22;34357;51.948;6.132;2022-09-03T20:06:45;21.00;61.00
48579;DHT22;34357;51.948;6.132;2022-09-03T20:09:33;21.00;60.80
48579;DHT22;34357;51.948;6.132;2022-09-03T20:12:19;20.90;61.30
48579;DHT22;34357;51.948;6.132;2022-09-03T20:14:47;20.90;61.40
48579;DHT22;34357;51.948;6.132;2022-09-03T20:17:26;20.80;61.80
48579;DHT22;34357;51.948;6.132;2022-09-03T20:20:09;20.70;61.60
48579;DHT22;34357;51.948;6.132;2022-09-03T20:22:57;20.70;61.60
48579;DHT22;34357;51.948;6.132;2022-09-03T20:31:04;20.60;60.60
48579;DHT22;34357;51.948;6.132;2022-09-03T20:53:18;20.40;59.10
48579;DHT22;34357;51.948;6.132;2022-09-03T20:55:50;20.40;59.10
48579;DHT22;34357;51.948;6.132;2022-09-03T21:01:09;20.30;59.50
48579;DHT22;34357;51.948;6.132;2022-09-03T21:11:48;20.10;60.20
48579;DHT22;34357;51.948;6.132;2022-09-03T21:14:37;20.00;60.60
48579;DHT22;34357;51.948;6.132;2022-09-03T21:17:32;19.90;61.30
48579;DHT22;34357;51.948;6.132;2022-09-03T21:20:26;19.90;60.70
48579;DHT22;34357;51.948;6.132;2022-09-03T21:23:21;19.90;61.00
48579;DHT22;34357;51.948;6.132;2022-09-03T21:26:00;19.90;61.60
48579;DHT22;34357;51.948;6.132;2022-09-03T21:31:51;19.70;61.90
48579;DHT22;34357;51.948;6.132;2022-09-03T21:34:40;19.70;62.20
48579;DHT22;34357;51.948;6.132;2022-09-03T21:37:12;19.80;61.70
48579;DHT22;34357;51.948;6.132;2022-09-03T21:39:44;19.70;62.20